createdAt,value
2022-12-04T00:01:28.988Z,2.17
2022-12-04T00:04:00.128Z,1.85
2022-12-04T00:06:28.827Z,2.88
2022-12-04T00:08:57.845Z,2.55
2022-12-04T00:11:29.749Z,3.72
2022-12-04T00:14:06.094Z,3.17
2022-12-04T00:16:35.844Z,2.35
2022-12-04T00:19:04.303Z,2.40
2022-12-04T00:21:32.420Z,2.08
2022-12-04T00:24:00.252Z,2.05
2022-12-04T00:26:31.139Z,1.85
2022-12-04T00:28:59.203Z,2.08
2022-12-04T00:31:29.732Z,1.77
2022-12-04T00:33:58.531Z,1.40
2022-12-04T00:36:29.514Z,1.50
2022-12-04T00:38:58.719Z,1.45
2022-12-04T00:41:28.963Z,1.65
2022-12-04T00:43:56.601Z,3.20
2022-12-04T00:46:24.566Z,2.20
2022-12-04T00:48:52.865Z,1.60
2022-12-04T00:51:25.146Z,4.80
2022-12-04T00:53:53.259Z,2.20
2022-12-04T00:56:25.970Z,2.67
2022-12-04T00:58:56.820Z,1.60
2022-12-04T01:01:26.445Z,1.67
2022-12-04T01:03:55.433Z,0.80
2022-12-04T01:06:33.950Z,4.18
2022-12-04T01:09:04.627Z,1.38
2022-12-04T01:11:33.928Z,1.40
2022-12-04T01:14:02.006Z,2.47
2022-12-04T01:16:36.949Z,1.95
2022-12-04T01:19:07.747Z,1.23
2022-12-04T01:21:37.475Z,1.02
2022-12-04T01:24:05.874Z,1.05
2022-12-04T01:26:33.792Z,2.50
2022-12-04T01:29:01.838Z,2.53
2022-12-04T01:31:30.249Z,2.08
2022-12-04T01:33:58.500Z,1.38
2022-12-04T01:36:28.865Z,0.55
2022-12-04T01:38:56.674Z,1.48
2022-12-04T01:41:30.874Z,1.15
2022-12-04T01:44:11.576Z,0.63
2022-12-04T01:46:41.877Z,2.97
2022-12-04T01:49:37.543Z,0.90
2022-12-04T01:52:21.586Z,1.52
2022-12-04T01:54:59.613Z,0.32
2022-12-04T01:57:32.488Z,1.10
2022-12-04T02:00:07.695Z,1.45
2022-12-04T02:02:41.330Z,0.40
2022-12-04T02:05:13.363Z,0.65
2022-12-04T02:07:45.282Z,0.88
2022-12-04T02:10:14.023Z,0.73
2022-12-04T02:13:09.101Z,1.27
2022-12-04T02:16:06.305Z,2.08
2022-12-04T02:19:38.231Z,0.85
2022-12-04T02:22:28.504Z,0.57
2022-12-04T02:25:24.475Z,0.30
2022-12-04T02:28:23.927Z,0.57
2022-12-04T02:30:59.238Z,0.45
2022-12-04T02:33:37.270Z,0.88
2022-12-04T02:36:20.930Z,1.08
2022-12-04T02:39:02.721Z,0.65
2022-12-04T02:41:44.249Z,0.40
2022-12-04T02:44:28.041Z,0.50
2022-12-04T02:47:05.696Z,0.63
2022-12-04T02:49:45.666Z,0.82
2022-12-04T02:52:21.301Z,0.50
2022-12-04T02:54:57.723Z,0.40
2022-12-04T02:57:32.548Z,2.75
2022-12-04T03:00:01.565Z,0.75
2022-12-04T03:02:53.483Z,0.45
2022-12-04T03:05:52.398Z,0.20
2022-12-04T03:08:27.925Z,2.30
2022-12-04T03:11:00.808Z,0.52
2022-12-04T03:13:57.467Z,0.40
2022-12-04T03:16:43.901Z,1.35
2022-12-04T03:19:19.909Z,0.57
2022-12-04T03:21:58.089Z,0.55
2022-12-04T03:24:27.821Z,0.73
2022-12-04T03:30:01.731Z,0.32
2022-12-04T03:32:38.431Z,2.47
2022-12-04T03:35:49.824Z,0.40
2022-12-04T03:38:42.101Z,0.47
2022-12-04T03:41:38.085Z,0.50
2022-12-04T03:44:41.319Z,0.17
2022-12-04T03:47:29.414Z,0.43
2022-12-04T03:50:21.564Z,0.95
2022-12-04T03:53:14.204Z,0.28
2022-12-04T03:55:54.621Z,1.08
2022-12-04T03:58:30.927Z,1.20
2022-12-04T04:01:00.304Z,0.98
2022-12-04T04:03:44.992Z,0.20
2022-12-04T04:06:25.467Z,0.57
2022-12-04T04:09:01.289Z,0.50
2022-12-04T04:11:40.525Z,1.98
2022-12-04T04:17:24.353Z,0.38
2022-12-04T04:20:26.490Z,0.28
2022-12-04T04:23:16.980Z,1.17
2022-12-04T04:25:47.406Z,1.77
2022-12-04T04:28:40.325Z,0.30
2022-12-04T04:31:17.455Z,1.95
2022-12-04T04:34:13.782Z,0.68
2022-12-04T04:36:53.648Z,1.45
2022-12-04T04:39:48.899Z,1.98
2022-12-04T04:42:30.015Z,0.75
2022-12-04T04:45:08.996Z,0.93
2022-12-04T04:47:52.695Z,2.78
2022-12-04T04:50:21.784Z,0.30
2022-12-04T04:53:03.858Z,1.52
2022-12-04T04:55:34.623Z,1.05
2022-12-04T04:58:13.681Z,0.68
2022-12-04T05:01:03.400Z,0.53
2022-12-04T05:03:32.646Z,0.85
2022-12-04T05:06:00.389Z,0.20
2022-12-04T05:08:28.671Z,1.25
2022-12-04T05:10:56.585Z,0.35
2022-12-04T05:13:25.070Z,0.40
2022-12-04T05:16:06.016Z,0.40
2022-12-04T05:18:35.344Z,0.52
2022-12-04T05:21:19.394Z,0.52
2022-12-04T05:23:47.209Z,0.60
2022-12-04T05:26:14.652Z,1.98
2022-12-04T05:28:42.524Z,0.47
2022-12-04T05:31:10.214Z,0.80
2022-12-04T05:33:38.171Z,0.28
2022-12-04T05:36:09.702Z,0.68
2022-12-04T05:38:38.039Z,4.57
2022-12-04T05:41:07.114Z,0.60
2022-12-04T05:46:08.865Z,0.60
2022-12-04T05:48:37.101Z,4.47
2022-12-04T05:51:10.566Z,0.52
2022-12-04T05:53:39.232Z,0.50
2022-12-04T05:56:08.023Z,0.20
2022-12-04T05:58:37.469Z,0.20
2022-12-04T06:01:19.332Z,0.20
2022-12-04T06:03:47.309Z,1.38
2022-12-04T06:06:23.259Z,5.97
2022-12-04T06:08:55.065Z,0.63
2022-12-04T06:11:26.704Z,1.38
2022-12-04T06:13:55.150Z,1.48
2022-12-04T06:16:26.733Z,1.08
2022-12-04T06:19:01.675Z,2.42
2022-12-04T06:21:32.242Z,0.20
2022-12-04T06:24:00.236Z,0.63
2022-12-04T06:26:28.131Z,3.85
2022-12-04T06:28:58.840Z,1.27
2022-12-04T06:31:29.812Z,0.57
2022-12-04T06:33:58.977Z,0.50
2022-12-04T06:36:26.659Z,0.30
2022-12-04T06:38:56.910Z,0.63
2022-12-04T06:41:26.606Z,3.80
2022-12-04T06:43:55.278Z,0.85
2022-12-04T06:46:30.416Z,0.50
2022-12-04T06:49:00.537Z,2.20
2022-12-04T06:51:35.655Z,0.57
2022-12-04T06:54:04.495Z,0.38
2022-12-04T06:56:33.932Z,1.70
2022-12-04T06:59:04.030Z,0.60
2022-12-04T07:01:34.436Z,1.00
2022-12-04T07:04:04.444Z,0.75
2022-12-04T07:06:38.944Z,0.90
2022-12-04T07:09:17.374Z,0.52
2022-12-04T07:11:46.158Z,0.35
2022-12-04T07:14:14.808Z,0.50
2022-12-04T07:16:43.004Z,1.48
2022-12-04T07:19:13.894Z,1.00
2022-12-04T07:21:43.173Z,0.52
2022-12-04T07:24:16.918Z,2.05
2022-12-04T07:26:45.229Z,0.35
2022-12-04T07:29:13.542Z,2.23
2022-12-04T07:31:41.388Z,0.90
2022-12-04T07:34:09.369Z,0.85
2022-12-04T07:36:37.023Z,1.95
2022-12-04T07:39:04.957Z,1.30
2022-12-04T07:41:32.705Z,2.65
2022-12-04T07:44:07.326Z,0.22
2022-12-04T07:46:35.792Z,1.63
2022-12-04T07:49:03.750Z,0.77
2022-12-04T07:51:31.408Z,3.05
2022-12-04T07:54:03.225Z,2.60
2022-12-04T07:56:33.495Z,1.00
2022-12-04T07:59:02.458Z,1.75
2022-12-04T08:01:31.198Z,2.97
2022-12-04T08:04:01.112Z,0.52
2022-12-04T08:06:32.391Z,0.77
2022-12-04T08:09:04.799Z,0.50
2022-12-04T08:11:35.725Z,3.42
2022-12-04T08:14:06.187Z,3.88
2022-12-04T08:16:34.143Z,1.38
2022-12-04T08:19:02.200Z,2.13
2022-12-04T08:21:32.015Z,3.30
2022-12-04T08:24:01.980Z,1.75
2022-12-04T08:26:31.690Z,0.77
2022-12-04T08:29:03.950Z,2.10
2022-12-04T08:31:34.669Z,6.85
2022-12-04T08:34:06.394Z,0.68
2022-12-04T08:36:35.212Z,0.50
2022-12-04T08:39:03.789Z,0.93
2022-12-04T08:41:31.466Z,1.00
2022-12-04T08:43:59.696Z,1.20
2022-12-04T08:46:28.966Z,1.38
2022-12-04T08:51:29.528Z,0.80
2022-12-04T08:54:05.445Z,1.05
2022-12-04T08:56:34.723Z,4.13
2022-12-04T08:59:02.962Z,4.40
2022-12-04T09:01:31.771Z,1.20
2022-12-04T09:04:00.908Z,1.20
2022-12-04T09:06:29.841Z,1.75
2022-12-04T09:08:58.174Z,1.20
2022-12-04T09:11:28.408Z,1.65
2022-12-04T09:13:56.492Z,1.23
2022-12-04T09:16:25.863Z,3.80
2022-12-04T09:18:55.709Z,5.68
2022-12-04T09:26:33.136Z,5.65
2022-12-04T09:29:04.124Z,1.27
2022-12-04T09:31:33.139Z,3.17
2022-12-04T09:34:02.142Z,1.02
2022-12-04T09:36:30.498Z,4.22
2022-12-04T09:38:58.987Z,2.00
2022-12-04T09:41:36.419Z,1.55
2022-12-04T09:44:11.162Z,1.27
2022-12-04T09:46:51.376Z,2.33
2022-12-04T09:49:45.718Z,1.42
2022-12-04T09:52:56.262Z,2.60
2022-12-04T09:55:47.655Z,1.38
2022-12-04T09:58:28.586Z,1.23
2022-12-04T10:00:58.670Z,2.75
2022-12-04T10:03:30.564Z,1.05
2022-12-04T10:06:27.087Z,2.35
2022-12-04T10:09:26.674Z,1.95
2022-12-04T10:15:22.313Z,5.07
2022-12-04T10:17:59.639Z,3.50
2022-12-04T10:20:52.115Z,1.27
2022-12-04T10:23:41.499Z,3.13
2022-12-04T10:26:20.342Z,2.55
2022-12-04T10:29:14.724Z,11.95
2022-12-04T10:31:46.703Z,1.42
2022-12-04T10:34:26.634Z,1.17
2022-12-04T10:39:36.727Z,1.40
2022-12-04T10:42:19.444Z,4.90
2022-12-04T10:44:47.789Z,1.15
2022-12-04T10:47:15.591Z,1.42
2022-12-04T10:49:43.969Z,4.03
2022-12-04T10:52:15.342Z,4.25
2022-12-04T10:54:57.944Z,2.08
2022-12-04T10:57:42.099Z,2.92
2022-12-04T11:00:36.014Z,2.83
2022-12-04T11:03:22.634Z,1.73
2022-12-04T11:06:01.866Z,4.35
2022-12-04T11:08:49.479Z,3.10
2022-12-04T11:11:31.499Z,1.90
2022-12-04T11:14:28.824Z,2.60
2022-12-04T11:17:06.571Z,9.02
2022-12-04T11:19:36.518Z,8.48
2022-12-04T11:22:14.800Z,1.88
2022-12-04T11:24:49.487Z,2.67
2022-12-04T11:27:29.245Z,1.98
2022-12-04T11:29:58.473Z,3.38
2022-12-04T11:32:32.073Z,2.75
2022-12-04T11:35:14.500Z,5.65
2022-12-04T11:37:45.445Z,2.47
2022-12-04T11:40:20.120Z,3.03
2022-12-04T11:43:12.472Z,6.90
2022-12-04T11:45:40.638Z,3.85
2022-12-04T11:48:18.335Z,4.28
2022-12-04T11:51:23.849Z,3.17
2022-12-04T11:54:09.574Z,4.43
2022-12-04T11:56:58.698Z,4.97
2022-12-04T12:02:42.047Z,5.93
2022-12-04T12:05:32.313Z,11.25
2022-12-04T12:08:38.495Z,10.25
2022-12-04T12:11:32.059Z,7.15
2022-12-04T12:14:25.107Z,9.88
2022-12-04T12:17:24.400Z,11.13
2022-12-04T12:20:04.884Z,5.50
2022-12-04T12:22:57.067Z,15.10
2022-12-04T12:25:52.354Z,19.38
2022-12-04T12:28:52.686Z,17.00
2022-12-04T12:32:16.707Z,12.57
2022-12-04T12:34:46.547Z,13.60
2022-12-04T12:37:44.271Z,8.95
2022-12-04T12:40:27.366Z,7.18
2022-12-04T12:43:11.247Z,13.25
2022-12-04T12:45:59.012Z,33.40
2022-12-04T12:48:38.930Z,12.82
2022-12-04T12:51:47.658Z,25.75
2022-12-04T12:54:57.373Z,20.63
2022-12-04T12:57:46.606Z,11.85
2022-12-04T13:00:18.744Z,11.68
2022-12-04T13:03:35.868Z,14.88
2022-12-04T13:06:15.410Z,14.73
2022-12-04T13:09:16.918Z,7.85
2022-12-04T13:11:49.131Z,18.58
2022-12-04T13:14:17.627Z,18.88
2022-12-04T13:16:54.224Z,25.05
2022-12-04T13:19:44.446Z,12.40
2022-12-04T13:22:46.998Z,9.55
2022-12-04T13:25:44.611Z,6.25
2022-12-04T13:28:31.597Z,12.93
2022-12-04T13:31:45.488Z,6.88
2022-12-04T13:34:23.795Z,11.68
2022-12-04T13:37:05.238Z,11.47
2022-12-04T13:40:20.501Z,17.75
2022-12-04T13:42:49.370Z,11.23
2022-12-04T13:45:46.531Z,10.00
2022-12-04T13:48:26.414Z,11.40
2022-12-04T13:54:03.738Z,9.68
2022-12-04T13:56:31.823Z,7.93
2022-12-04T13:59:32.575Z,6.38
2022-12-04T14:02:35.361Z,10.98
2022-12-04T14:05:12.027Z,8.98
2022-12-04T14:07:44.566Z,7.82
2022-12-04T14:10:15.117Z,9.65
2022-12-04T14:12:50.134Z,11.07
2022-12-04T14:15:31.420Z,5.85
2022-12-04T14:18:17.728Z,9.48
2022-12-04T14:20:56.838Z,7.57
2022-12-04T14:23:41.828Z,15.63
2022-12-04T14:27:10.154Z,12.23
2022-12-04T14:29:30.139Z,11.57
2022-12-04T14:32:10.437Z,5.65
2022-12-04T14:34:38.705Z,5.70
2022-12-04T14:37:17.528Z,14.07
2022-12-04T14:39:47.035Z,4.87
2022-12-04T14:42:17.686Z,5.05
2022-12-04T14:44:51.282Z,6.90
2022-12-04T14:48:08.515Z,10.20
2022-12-04T14:50:54.025Z,8.38
2022-12-04T14:54:36.391Z,6.55
2022-12-04T14:57:42.264Z,2.80
2022-12-04T15:00:22.920Z,4.05
2022-12-04T15:02:58.666Z,6.18
2022-12-04T15:05:32.329Z,5.75
2022-12-04T15:08:05.275Z,11.98
2022-12-04T15:10:53.611Z,5.50
2022-12-04T15:13:33.743Z,6.30
2022-12-04T15:16:18.106Z,3.63
2022-12-04T15:19:00.868Z,3.30
2022-12-04T15:21:40.660Z,5.35
2022-12-04T15:27:32.694Z,4.68
2022-12-04T15:30:03.348Z,5.20
2022-12-04T15:32:32.616Z,7.15
2022-12-04T15:35:09.304Z,5.53
2022-12-04T15:37:37.849Z,6.07
2022-12-04T15:40:18.725Z,9.55
2022-12-04T15:42:46.846Z,7.10
2022-12-04T15:45:14.321Z,6.60
2022-12-04T15:47:42.117Z,14.57
2022-12-04T15:50:31.375Z,10.27
2022-12-04T15:53:01.921Z,9.82
2022-12-04T15:55:39.870Z,9.77
2022-12-04T15:58:31.739Z,4.97
2022-12-04T16:01:12.009Z,7.30
2022-12-04T16:03:43.125Z,6.90
2022-12-04T16:06:32.457Z,3.95
2022-12-04T16:09:18.162Z,11.43
2022-12-04T16:11:46.550Z,13.00
2022-12-04T16:14:18.979Z,6.70
2022-12-04T16:16:50.563Z,6.00
2022-12-04T16:19:29.026Z,7.70
2022-12-04T16:21:56.992Z,4.75
2022-12-04T16:24:25.767Z,8.48
2022-12-04T16:26:55.564Z,7.30
2022-12-04T16:29:24.784Z,3.38
2022-12-04T16:31:52.639Z,2.33
2022-12-04T16:34:21.286Z,4.38
2022-12-04T16:36:48.898Z,2.88
2022-12-04T16:39:16.850Z,1.67
2022-12-04T16:41:44.451Z,5.30
2022-12-04T16:44:16.926Z,7.32
2022-12-04T16:46:45.285Z,2.92
2022-12-04T16:49:13.812Z,3.28
2022-12-04T16:51:51.238Z,2.63
2022-12-04T16:54:19.778Z,1.40
2022-12-04T16:56:47.726Z,2.67
2022-12-04T16:59:15.757Z,2.45
2022-12-04T17:01:49.487Z,6.13
2022-12-04T17:04:18.560Z,2.53
2022-12-04T17:06:46.759Z,4.83
2022-12-04T17:09:16.483Z,2.88
2022-12-04T17:11:44.856Z,4.80
2022-12-04T17:14:13.119Z,2.47
2022-12-04T17:16:44.025Z,5.57
2022-12-04T17:19:12.993Z,7.57
2022-12-04T17:21:41.681Z,3.78
2022-12-04T17:24:09.719Z,5.43
2022-12-04T17:26:37.439Z,2.70
2022-12-04T17:29:05.450Z,4.70
2022-12-04T17:31:33.168Z,3.55
2022-12-04T17:34:01.176Z,5.80
2022-12-04T17:36:28.871Z,4.70
2022-12-04T17:38:59.557Z,5.70
2022-12-04T17:41:27.758Z,3.85
2022-12-04T17:43:55.618Z,3.42
2022-12-04T17:46:24.700Z,4.38
2022-12-04T17:51:23.474Z,5.65
2022-12-04T17:53:52.313Z,4.05
2022-12-04T17:56:23.216Z,6.32
2022-12-04T17:58:51.779Z,3.88
2022-12-04T18:01:23.219Z,4.00
2022-12-04T18:04:00.480Z,5.10
2022-12-04T18:06:32.703Z,4.47
2022-12-04T18:09:02.121Z,6.47
2022-12-04T18:11:32.549Z,5.17
2022-12-04T18:14:11.742Z,6.82
2022-12-04T18:16:44.921Z,4.57
2022-12-04T18:19:14.600Z,4.28
2022-12-04T18:21:42.307Z,4.78
2022-12-04T18:24:10.536Z,4.07
2022-12-04T18:26:41.988Z,3.40
2022-12-04T18:29:13.889Z,3.13
2022-12-04T18:31:42.236Z,2.58
2022-12-04T18:34:11.739Z,3.43
2022-12-04T18:36:42.198Z,3.97
2022-12-04T18:39:16.355Z,6.00
2022-12-04T18:41:44.393Z,5.32
2022-12-04T18:44:13.122Z,3.35
2022-12-04T18:46:41.546Z,13.32
2022-12-04T18:49:11.060Z,3.10
2022-12-04T18:51:50.129Z,2.08
2022-12-04T18:54:22.449Z,3.35
2022-12-04T18:56:50.633Z,3.47
2022-12-04T18:59:25.685Z,2.83
2022-12-04T19:01:54.247Z,3.25
2022-12-04T19:04:24.875Z,4.97
2022-12-04T19:06:56.132Z,3.30
2022-12-04T19:10:08.915Z,2.75
2022-12-04T19:12:17.198Z,4.25
2022-12-04T19:14:45.164Z,3.57
2022-12-04T19:17:13.326Z,4.00
2022-12-04T19:19:41.609Z,2.63
2022-12-04T19:22:09.553Z,3.42
2022-12-04T19:24:37.581Z,2.05
2022-12-04T19:27:11.222Z,2.45
2022-12-04T19:29:43.020Z,2.65
2022-12-04T19:32:11.613Z,4.05
2022-12-04T19:34:40.239Z,2.15
2022-12-04T19:37:08.331Z,3.80
2022-12-04T19:39:36.696Z,3.25
2022-12-04T19:42:04.675Z,3.40
2022-12-04T19:44:48.518Z,2.40
2022-12-04T19:47:17.961Z,4.03
2022-12-04T19:49:46.657Z,2.53
2022-12-04T19:52:14.847Z,3.58
2022-12-04T19:54:42.843Z,2.42
2022-12-04T19:57:10.614Z,2.55
2022-12-04T19:59:43.095Z,3.38
2022-12-04T20:02:14.427Z,2.75
2022-12-04T20:04:43.296Z,4.65
2022-12-04T20:07:11.075Z,2.70
2022-12-04T20:09:39.022Z,6.88
2022-12-04T20:12:07.131Z,3.83
2022-12-04T20:14:35.224Z,3.25
2022-12-04T20:17:04.111Z,3.20
2022-12-04T20:19:32.533Z,3.10
2022-12-04T20:22:00.244Z,6.75
2022-12-04T20:24:28.479Z,3.80
2022-12-04T20:26:56.107Z,3.25
2022-12-04T20:29:24.213Z,3.05
2022-12-04T20:31:51.777Z,2.28
2022-12-04T20:34:19.983Z,3.88
2022-12-04T20:36:49.297Z,2.47
2022-12-04T20:39:36.053Z,2.13
2022-12-04T20:42:03.851Z,7.72
2022-12-04T20:44:31.861Z,4.82
2022-12-04T20:46:59.458Z,2.45
2022-12-04T20:49:27.349Z,3.92
2022-12-04T20:51:54.930Z,4.35
2022-12-04T20:54:23.436Z,2.20
2022-12-04T20:56:54.082Z,3.97
2022-12-04T20:59:25.273Z,1.85
2022-12-04T21:01:53.210Z,4.18
2022-12-04T21:04:22.038Z,1.88
2022-12-04T21:06:50.330Z,2.57
2022-12-04T21:09:22.396Z,4.57
2022-12-04T21:11:55.886Z,2.35
2022-12-04T21:14:46.891Z,1.80
2022-12-04T21:17:20.764Z,2.97
2022-12-04T21:19:51.288Z,2.13
2022-12-04T21:22:20.030Z,2.00
2022-12-04T21:24:47.980Z,1.98
2022-12-04T21:27:20.649Z,1.98
2022-12-04T21:29:49.793Z,2.40
2022-12-04T21:32:19.340Z,1.07
2022-12-04T21:34:47.802Z,6.97
2022-12-04T21:37:15.575Z,3.65
2022-12-04T21:39:43.954Z,2.90
2022-12-04T21:42:30.072Z,2.15
2022-12-04T21:45:02.574Z,1.80
2022-12-04T21:47:31.886Z,1.40
2022-12-04T21:50:00.241Z,2.38
2022-12-04T21:52:28.132Z,1.83
2022-12-04T21:54:56.517Z,1.67
2022-12-04T21:57:24.350Z,1.55
2022-12-04T21:59:52.750Z,2.92
2022-12-04T22:02:21.424Z,1.77
2022-12-04T22:04:49.714Z,1.27
2022-12-04T22:07:17.706Z,1.77
2022-12-04T22:09:47.345Z,1.48
2022-12-04T22:12:41.183Z,1.38
2022-12-04T22:15:04.101Z,2.08
2022-12-04T22:17:31.736Z,3.22
2022-12-04T22:19:59.992Z,1.52
2022-12-04T22:22:27.674Z,4.95
2022-12-04T22:24:56.398Z,2.80
2022-12-04T22:27:24.080Z,1.02
2022-12-04T22:29:52.489Z,2.85
2022-12-04T22:32:20.331Z,1.48
2022-12-04T22:34:49.416Z,2.20
2022-12-04T22:37:17.297Z,1.67
2022-12-04T22:39:45.369Z,1.67
2022-12-04T22:42:13.734Z,1.27
2022-12-04T22:44:41.901Z,1.30
2022-12-04T22:47:09.766Z,1.33
2022-12-04T22:49:38.170Z,2.97
2022-12-04T22:52:05.972Z,2.17
2022-12-04T22:54:34.145Z,1.70
2022-12-04T22:57:02.007Z,2.30
2022-12-04T22:59:30.383Z,1.48
2022-12-04T23:02:00.173Z,2.10
2022-12-04T23:04:28.689Z,1.23
2022-12-04T23:06:56.388Z,2.72
2022-12-04T23:09:26.285Z,1.33
2022-12-04T23:11:55.500Z,1.50
2022-12-04T23:16:51.773Z,1.02
2022-12-04T23:19:20.274Z,1.25
2022-12-04T23:21:55.146Z,4.00
2022-12-04T23:24:26.208Z,2.10
2022-12-04T23:26:53.975Z,1.58
2022-12-04T23:29:52.781Z,3.30
2022-12-04T23:32:09.773Z,1.73
2022-12-04T23:34:38.380Z,1.75
2022-12-04T23:37:06.055Z,1.67
2022-12-04T23:39:34.014Z,1.88
2022-12-04T23:42:01.781Z,1.33
2022-12-04T23:44:29.851Z,1.23
2022-12-04T23:46:57.436Z,1.08
2022-12-04T23:49:25.913Z,2.17
2022-12-04T23:51:53.687Z,2.78
2022-12-04T23:54:21.627Z,1.25
2022-12-04T23:56:49.331Z,1.35
2022-12-04T23:59:17.235Z,1.50
